sensor_id;sensor_type;location;lat;lon;timestamp;temperature;humidity
5130;DHT22;2583;50.946;6.954;2022-09-01T00:01:48;19.80;49.90
5130;DHT22;2583;50.946;6.954;2022-09-01T00:04:18;19.80;50.10
5130;DHT22;2583;50.946;6.954;2022-09-01T00:06:46;19.70;50.40
5130;DHT22;2583;50.946;6.954;2022-09-01T00:09:16;19.70;50.50
5130;DHT22;2583;50.946;6.954;2022-09-01T00:11:47;19.70;50.80
5130;DHT22;2583;50.946;6.954;2022-09-01T00:14:22;19.70;51.20
5130;DHT22;2583;50.946;6.954;2022-09-01T00:17:01;19.70;51.50
5130;DHT22;2583;50.946;6.954;2022-09-01T00:19:28;19.70;51.80
5130;DHT22;2583;50.946;6.954;2022-09-01T00:21:55;19.70;51.80
5130;DHT22;2583;50.946;6.954;2022-09-01T00:24:22;19.60;52.90
5130;DHT22;2583;50.946;6.954;2022-09-01T00:26:52;19.60;53.60
5130;DHT22;2583;50.946;6.954;2022-09-01T00:29:20;19.70;52.90
5130;DHT22;2583;50.946;6.954;2022-09-01T00:31:47;19.70;52.50
5130;DHT22;2583;50.946;6.954;2022-09-01T00:34:14;19.70;52.40
5130;DHT22;2583;50.946;6.954;2022-09-01T00:36:42;19.70;51.80
5130;DHT22;2583;50.946;6.954;2022-09-01T00:39:09;19.70;52.20
5130;DHT22;2583;50.946;6.954;2022-09-01T00:41:38;19.70;52.40
5130;DHT22;2583;50.946;6.954;2022-09-01T00:44:08;19.70;52.10
5130;DHT22;2583;50.946;6.954;2022-09-01T00:46:42;19.70;52.70
5130;DHT22;2583;50.946;6.954;2022-09-01T00:49:33;19.70;52.80
5130;DHT22;2583;50.946;6.954;2022-09-01T00:52:23;19.70;52.40
5130;DHT22;2583;50.946;6.954;2022-09-01T00:54:54;19.60;52.60
5130;DHT22;2583;50.946;6.954;2022-09-01T00:57:24;19.60;53.30
5130;DHT22;2583;50.946;6.954;2022-09-01T01:00:01;19.50;53.60
5130;DHT22;2583;50.946;6.954;2022-09-01T01:02:30;19.50;53.60
5130;DHT22;2583;50.946;6.954;2022-09-01T01:04:56;19.50;54.70
5130;DHT22;2583;50.946;6.954;2022-09-01T01:07:26;19.50;55.40
5130;DHT22;2583;50.946;6.954;2022-09-01T01:09:54;19.50;55.90
5130;DHT22;2583;50.946;6.954;2022-09-01T01:12:21;19.50;56.50
5130;DHT22;2583;50.946;6.954;2022-09-01T01:14:49;19.50;57.90
5130;DHT22;2583;50.946;6.954;2022-09-01T01:17:21;19.50;58.40
5130;DHT22;2583;50.946;6.954;2022-09-01T01:19:53;19.40;58.30
5130;DHT22;2583;50.946;6.954;2022-09-01T01:25:54;19.30;59.80
5130;DHT22;2583;50.946;6.954;2022-09-01T01:28:26;19.30;63.40
5130;DHT22;2583;50.946;6.954;2022-09-01T01:30:59;19.30;67.30
5130;DHT22;2583;50.946;6.954;2022-09-01T01:33:33;19.30;63.50
5130;DHT22;2583;50.946;6.954;2022-09-01T01:36:11;19.30;64.30
5130;DHT22;2583;50.946;6.954;2022-09-01T01:38:40;19.20;63.00
5130;DHT22;2583;50.946;6.954;2022-09-01T01:41:09;19.20;64.70
5130;DHT22;2583;50.946;6.954;2022-09-01T01:43:37;19.30;65.10
5130;DHT22;2583;50.946;6.954;2022-09-01T01:46:06;19.20;66.20
5130;DHT22;2583;50.946;6.954;2022-09-01T01:48:36;19.20;68.00
5130;DHT22;2583;50.946;6.954;2022-09-01T01:51:03;19.20;69.40
5130;DHT22;2583;50.946;6.954;2022-09-01T01:53:32;19.20;70.10
5130;DHT22;2583;50.946;6.954;2022-09-01T01:55:59;19.10;74.00
5130;DHT22;2583;50.946;6.954;2022-09-01T01:58:27;19.10;74.50
5130;DHT22;2583;50.946;6.954;2022-09-01T02:00:58;19.10;74.10
5130;DHT22;2583;50.946;6.954;2022-09-01T02:03:27;19.00;74.50
5130;DHT22;2583;50.946;6.954;2022-09-01T02:06:00;19.00;73.60
5130;DHT22;2583;50.946;6.954;2022-09-01T02:08:34;19.00;73.10
5130;DHT22;2583;50.946;6.954;2022-09-01T02:11:03;19.00;71.80
5130;DHT22;2583;50.946;6.954;2022-09-01T02:13:31;19.00;72.30
5130;DHT22;2583;50.946;6.954;2022-09-01T02:16:06;18.90;74.50
5130;DHT22;2583;50.946;6.954;2022-09-01T02:18:36;18.90;76.00
5130;DHT22;2583;50.946;6.954;2022-09-01T02:21:06;18.90;77.80
5130;DHT22;2583;50.946;6.954;2022-09-01T02:23:43;18.80;76.50
5130;DHT22;2583;50.946;6.954;2022-09-01T02:26:10;18.80;74.40
5130;DHT22;2583;50.946;6.954;2022-09-01T02:28:45;18.80;74.50
5130;DHT22;2583;50.946;6.954;2022-09-01T02:31:21;18.80;75.90
5130;DHT22;2583;50.946;6.954;2022-09-01T02:33:48;18.90;76.20
5130;DHT22;2583;50.946;6.954;2022-09-01T02:36:16;18.80;74.10
5130;DHT22;2583;50.946;6.954;2022-09-01T02:38:45;18.80;74.00
5130;DHT22;2583;50.946;6.954;2022-09-01T02:41:21;18.80;74.90
5130;DHT22;2583;50.946;6.954;2022-09-01T02:43:50;18.80;75.00
5130;DHT22;2583;50.946;6.954;2022-09-01T02:46:17;18.80;75.90
5130;DHT22;2583;50.946;6.954;2022-09-01T02:48:49;18.80;77.20
5130;DHT22;2583;50.946;6.954;2022-09-01T02:51:19;18.80;77.70
5130;DHT22;2583;50.946;6.954;2022-09-01T02:53:47;18.70;79.10
5130;DHT22;2583;50.946;6.954;2022-09-01T02:56:23;18.80;78.50
5130;DHT22;2583;50.946;6.954;2022-09-01T02:58:51;18.70;78.60
5130;DHT22;2583;50.946;6.954;2022-09-01T03:01:30;18.70;78.20
5130;DHT22;2583;50.946;6.954;2022-09-01T03:04:00;18.70;78.00
5130;DHT22;2583;50.946;6.954;2022-09-01T03:06:28;18.70;79.10
5130;DHT22;2583;50.946;6.954;2022-09-01T03:09:00;18.70;79.30
5130;DHT22;2583;50.946;6.954;2022-09-01T03:11:29;18.70;80.20
5130;DHT22;2583;50.946;6.954;2022-09-01T03:13:56;18.70;78.40
5130;DHT22;2583;50.946;6.954;2022-09-01T03:16:23;18.70;78.60
5130;DHT22;2583;50.946;6.954;2022-09-01T03:18:51;18.80;77.30
5130;DHT22;2583;50.946;6.954;2022-09-01T03:21:19;18.70;77.50
5130;DHT22;2583;50.946;6.954;2022-09-01T03:23:47;18.70;78.20
5130;DHT22;2583;50.946;6.954;2022-09-01T03:26:14;18.70;79.60
5130;DHT22;2583;50.946;6.954;2022-09-01T03:28:44;18.70;80.30
5130;DHT22;2583;50.946;6.954;2022-09-01T03:31:11;18.70;81.10
5130;DHT22;2583;50.946;6.954;2022-09-01T03:33:38;18.70;81.30
5130;DHT22;2583;50.946;6.954;2022-09-01T03:36:06;18.70;80.80
5130;DHT22;2583;50.946;6.954;2022-09-01T03:38:41;18.70;80.70
5130;DHT22;2583;50.946;6.954;2022-09-01T03:41:09;18.60;80.70
5130;DHT22;2583;50.946;6.954;2022-09-01T03:43:39;18.60;81.50
5130;DHT22;2583;50.946;6.954;2022-09-01T03:46:13;18.60;83.50
5130;DHT22;2583;50.946;6.954;2022-09-01T03:48:53;18.50;83.70
5130;DHT22;2583;50.946;6.954;2022-09-01T03:51:21;18.50;85.60
5130;DHT22;2583;50.946;6.954;2022-09-01T03:53:51;18.50;86.00
5130;DHT22;2583;50.946;6.954;2022-09-01T03:56:24;18.40;87.50
5130;DHT22;2583;50.946;6.954;2022-09-01T03:58:57;18.40;87.50
5130;DHT22;2583;50.946;6.954;2022-09-01T04:01:26;18.30;89.00
5130;DHT22;2583;50.946;6.954;2022-09-01T04:03:53;18.30;89.80
5130;DHT22;2583;50.946;6.954;2022-09-01T04:06:20;18.30;91.00
5130;DHT22;2583;50.946;6.954;2022-09-01T04:08:50;18.20;91.50
5130;DHT22;2583;50.946;6.954;2022-09-01T04:11:29;18.20;92.00
5130;DHT22;2583;50.946;6.954;2022-09-01T04:13:56;18.20;92.10
5130;DHT22;2583;50.946;6.954;2022-09-01T04:16:26;18.10;91.80
5130;DHT22;2583;50.946;6.954;2022-09-01T04:19:14;18.10;91.50
5130;DHT22;2583;50.946;6.954;2022-09-01T04:21:48;18.10;92.50
5130;DHT22;2583;50.946;6.954;2022-09-01T04:24:16;18.10;93.30
5130;DHT22;2583;50.946;6.954;2022-09-01T04:26:46;18.10;93.00
5130;DHT22;2583;50.946;6.954;2022-09-01T04:29:15;18.10;93.70
5130;DHT22;2583;50.946;6.954;2022-09-01T04:31:44;18.10;92.80
5130;DHT22;2583;50.946;6.954;2022-09-01T04:34:14;18.10;92.40
5130;DHT22;2583;50.946;6.954;2022-09-01T04:36:43;18.00;92.30
5130;DHT22;2583;50.946;6.954;2022-09-01T04:39:11;18.00;92.50
5130;DHT22;2583;50.946;6.954;2022-09-01T04:41:43;18.00;93.50
5130;DHT22;2583;50.946;6.954;2022-09-01T04:44:13;18.00;93.60
5130;DHT22;2583;50.946;6.954;2022-09-01T04:46:45;18.00;94.70
5130;DHT22;2583;50.946;6.954;2022-09-01T04:49:14;18.00;93.70
5130;DHT22;2583;50.946;6.954;2022-09-01T04:51:50;18.00;93.90
5130;DHT22;2583;50.946;6.954;2022-09-01T04:54:21;18.00;93.70
5130;DHT22;2583;50.946;6.954;2022-09-01T04:56:49;18.00;94.20
5130;DHT22;2583;50.946;6.954;2022-09-01T04:59:19;18.00;94.20
5130;DHT22;2583;50.946;6.954;2022-09-01T05:01:48;17.90;94.60
5130;DHT22;2583;50.946;6.954;2022-09-01T05:04:19;17.90;95.20
5130;DHT22;2583;50.946;6.954;2022-09-01T05:06:49;18.00;95.40
5130;DHT22;2583;50.946;6.954;2022-09-01T05:09:18;18.00;95.70
5130;DHT22;2583;50.946;6.954;2022-09-01T05:11:45;18.00;96.00
5130;DHT22;2583;50.946;6.954;2022-09-01T05:14:12;18.00;96.40
5130;DHT22;2583;50.946;6.954;2022-09-01T05:16:39;17.90;95.50
5130;DHT22;2583;50.946;6.954;2022-09-01T05:19:11;17.90;95.30
5130;DHT22;2583;50.946;6.954;2022-09-01T05:21:43;18.00;94.50
5130;DHT22;2583;50.946;6.954;2022-09-01T05:24:14;18.00;94.80
5130;DHT22;2583;50.946;6.954;2022-09-01T05:26:43;18.00;94.30
5130;DHT22;2583;50.946;6.954;2022-09-01T05:29:13;18.00;94.70
5130;DHT22;2583;50.946;6.954;2022-09-01T05:31:44;18.00;94.70
5130;DHT22;2583;50.946;6.954;2022-09-01T05:34:16;18.00;94.90
5130;DHT22;2583;50.946;6.954;2022-09-01T05:36:54;18.00;94.70
5130;DHT22;2583;50.946;6.954;2022-09-01T05:39:24;18.00;95.30
5130;DHT22;2583;50.946;6.954;2022-09-01T05:41:51;18.10;95.40
5130;DHT22;2583;50.946;6.954;2022-09-01T05:44:22;18.00;94.20
5130;DHT22;2583;50.946;6.954;2022-09-01T05:46:49;18.10;94.60
5130;DHT22;2583;50.946;6.954;2022-09-01T05:49:16;18.10;93.80
5130;DHT22;2583;50.946;6.954;2022-09-01T05:51:49;18.10;94.60
5130;DHT22;2583;50.946;6.954;2022-09-01T05:54:19;18.10;94.00
5130;DHT22;2583;50.946;6.954;2022-09-01T05:56:51;18.10;94.00
5130;DHT22;2583;50.946;6.954;2022-09-01T05:59:19;18.10;95.20
5130;DHT22;2583;50.946;6.954;2022-09-01T06:01:52;18.20;93.40
5130;DHT22;2583;50.946;6.954;2022-09-01T06:04:21;18.10;92.30
5130;DHT22;2583;50.946;6.954;2022-09-01T06:06:49;18.20;93.00
5130;DHT22;2583;50.946;6.954;2022-09-01T06:09:39;18.20;92.90
5130;DHT22;2583;50.946;6.954;2022-09-01T06:12:08;18.20;91.80
5130;DHT22;2583;50.946;6.954;2022-09-01T06:14:45;18.30;92.30
5130;DHT22;2583;50.946;6.954;2022-09-01T06:17:12;18.30;92.40
5130;DHT22;2583;50.946;6.954;2022-09-01T06:19:42;18.30;91.50
5130;DHT22;2583;50.946;6.954;2022-09-01T06:22:09;18.30;91.10
5130;DHT22;2583;50.946;6.954;2022-09-01T06:24:37;18.30;90.60
5130;DHT22;2583;50.946;6.954;2022-09-01T06:27:10;18.40;89.70
5130;DHT22;2583;50.946;6.954;2022-09-01T06:29:37;18.40;89.40
5130;DHT22;2583;50.946;6.954;2022-09-01T06:32:08;18.50;86.50
5130;DHT22;2583;50.946;6.954;2022-09-01T06:34:39;18.50;82.30
5130;DHT22;2583;50.946;6.954;2022-09-01T06:37:09;18.60;80.10
5130;DHT22;2583;50.946;6.954;2022-09-01T06:39:36;18.60;76.50
5130;DHT22;2583;50.946;6.954;2022-09-01T06:42:03;18.70;73.40
5130;DHT22;2583;50.946;6.954;2022-09-01T06:44:32;18.70;73.30
5130;DHT22;2583;50.946;6.954;2022-09-01T06:47:01;18.80;71.50
5130;DHT22;2583;50.946;6.954;2022-09-01T06:49:28;18.80;69.60
5130;DHT22;2583;50.946;6.954;2022-09-01T06:51:59;18.80;68.40
5130;DHT22;2583;50.946;6.954;2022-09-01T06:54:26;18.90;69.30
5130;DHT22;2583;50.946;6.954;2022-09-01T06:56:55;18.90;67.50
5130;DHT22;2583;50.946;6.954;2022-09-01T06:59:27;19.00;65.20
5130;DHT22;2583;50.946;6.954;2022-09-01T07:02:01;19.00;63.30
5130;DHT22;2583;50.946;6.954;2022-09-01T07:04:31;19.00;62.40
5130;DHT22;2583;50.946;6.954;2022-09-01T07:06:58;19.00;63.00
5130;DHT22;2583;50.946;6.954;2022-09-01T07:09:45;19.00;60.70
5130;DHT22;2583;50.946;6.954;2022-09-01T07:12:32;19.10;58.50
5130;DHT22;2583;50.946;6.954;2022-09-01T07:15:00;19.20;58.70
5130;DHT22;2583;50.946;6.954;2022-09-01T07:17:49;19.20;56.80
5130;DHT22;2583;50.946;6.954;2022-09-01T07:20:19;19.20;57.60
5130;DHT22;2583;50.946;6.954;2022-09-01T07:22:52;19.30;56.80
5130;DHT22;2583;50.946;6.954;2022-09-01T07:25:38;19.30;56.20
5130;DHT22;2583;50.946;6.954;2022-09-01T07:28:27;19.40;55.00
5130;DHT22;2583;50.946;6.954;2022-09-01T07:31:04;19.50;53.80
5130;DHT22;2583;50.946;6.954;2022-09-01T07:33:53;19.60;53.10
5130;DHT22;2583;50.946;6.954;2022-09-01T07:36:40;19.60;54.10
5130;DHT22;2583;50.946;6.954;2022-09-01T07:39:28;19.80;52.90
5130;DHT22;2583;50.946;6.954;2022-09-01T07:42:18;19.90;52.00
5130;DHT22;2583;50.946;6.954;2022-09-01T07:45:07;20.00;50.40
5130;DHT22;2583;50.946;6.954;2022-09-01T07:47:54;20.00;50.20
5130;DHT22;2583;50.946;6.954;2022-09-01T07:50:22;20.10;49.10
5130;DHT22;2583;50.946;6.954;2022-09-01T07:53:05;20.10;49.50
5130;DHT22;2583;50.946;6.954;2022-09-01T07:55:34;20.20;49.20
5130;DHT22;2583;50.946;6.954;2022-09-01T07:58:01;20.30;48.50
5130;DHT22;2583;50.946;6.954;2022-09-01T08:00:27;20.40;48.30
5130;DHT22;2583;50.946;6.954;2022-09-01T08:02:57;20.50;47.40
5130;DHT22;2583;50.946;6.954;2022-09-01T08:05:24;20.60;47.80
5130;DHT22;2583;50.946;6.954;2022-09-01T08:07:53;20.60;46.70
5130;DHT22;2583;50.946;6.954;2022-09-01T08:10:20;20.70;46.70
5130;DHT22;2583;50.946;6.954;2022-09-01T08:12:47;20.80;47.30
5130;DHT22;2583;50.946;6.954;2022-09-01T08:15:22;20.90;46.60
5130;DHT22;2583;50.946;6.954;2022-09-01T08:18:10;21.10;45.00
5130;DHT22;2583;50.946;6.954;2022-09-01T08:20:41;21.30;44.30
5130;DHT22;2583;50.946;6.954;2022-09-01T08:23:15;21.30;43.50
5130;DHT22;2583;50.946;6.954;2022-09-01T08:25:45;21.30;44.00
5130;DHT22;2583;50.946;6.954;2022-09-01T08:28:14;21.50;43.70
5130;DHT22;2583;50.946;6.954;2022-09-01T08:30:42;21.60;43.00
5130;DHT22;2583;50.946;6.954;2022-09-01T08:33:18;21.70;42.50
5130;DHT22;2583;50.946;6.954;2022-09-01T08:35:47;21.80;42.20
5130;DHT22;2583;50.946;6.954;2022-09-01T08:38:14;21.80;41.50
5130;DHT22;2583;50.946;6.954;2022-09-01T08:40:42;21.80;40.90
5130;DHT22;2583;50.946;6.954;2022-09-01T08:45:55;22.00;39.50
5130;DHT22;2583;50.946;6.954;2022-09-01T08:48:39;22.10;40.20
5130;DHT22;2583;50.946;6.954;2022-09-01T08:51:42;22.20;40.20
5130;DHT22;2583;50.946;6.954;2022-09-01T08:54:22;22.40;38.80
5130;DHT22;2583;50.946;6.954;2022-09-01T08:57:01;22.50;38.40
5130;DHT22;2583;50.946;6.954;2022-09-01T08:59:29;22.60;37.80
5130;DHT22;2583;50.946;6.954;2022-09-01T09:02:01;22.70;37.50
5130;DHT22;2583;50.946;6.954;2022-09-01T09:10:11;23.00;35.30
5130;DHT22;2583;50.946;6.954;2022-09-01T09:12:57;23.20;34.30
5130;DHT22;2583;50.946;6.954;2022-09-01T09:15:41;23.30;32.60
5130;DHT22;2583;50.946;6.954;2022-09-01T09:18:33;23.50;32.40
5130;DHT22;2583;50.946;6.954;2022-09-01T09:21:20;23.50;32.40
5130;DHT22;2583;50.946;6.954;2022-09-01T09:24:02;23.50;31.30
5130;DHT22;2583;50.946;6.954;2022-09-01T09:26:32;23.50;31.80
5130;DHT22;2583;50.946;6.954;2022-09-01T09:29:14;23.70;31.20
5130;DHT22;2583;50.946;6.954;2022-09-01T09:31:41;23.60;29.70
5130;DHT22;2583;50.946;6.954;2022-09-01T09:34:32;23.60;29.30
5130;DHT22;2583;50.946;6.954;2022-09-01T09:39:43;23.80;28.70
5130;DHT22;2583;50.946;6.954;2022-09-01T09:42:12;23.90;28.00
5130;DHT22;2583;50.946;6.954;2022-09-01T09:44:47;23.90;27.30
5130;DHT22;2583;50.946;6.954;2022-09-01T09:47:36;24.00;27.70
5130;DHT22;2583;50.946;6.954;2022-09-01T09:50:32;24.10;26.80
5130;DHT22;2583;50.946;6.954;2022-09-01T09:53:25;24.10;26.60
5130;DHT22;2583;50.946;6.954;2022-09-01T09:56:02;24.20;26.60
5130;DHT22;2583;50.946;6.954;2022-09-01T09:58:36;24.10;25.90
5130;DHT22;2583;50.946;6.954;2022-09-01T10:01:10;23.90;26.30
5130;DHT22;2583;50.946;6.954;2022-09-01T10:03:52;24.20;26.50
5130;DHT22;2583;50.946;6.954;2022-09-01T10:09:05;24.80;24.60
5130;DHT22;2583;50.946;6.954;2022-09-01T10:17:05;24.50;24.80
5130;DHT22;2583;50.946;6.954;2022-09-01T10:19:34;24.60;24.50
5130;DHT22;2583;50.946;6.954;2022-09-01T10:22:07;24.90;23.80
5130;DHT22;2583;50.946;6.954;2022-09-01T10:24:37;25.20;22.80
5130;DHT22;2583;50.946;6.954;2022-09-01T10:27:23;25.30;22.40
5130;DHT22;2583;50.946;6.954;2022-09-01T10:30:07;25.10;22.50
5130;DHT22;2583;50.946;6.954;2022-09-01T10:32:53;25.10;22.90
5130;DHT22;2583;50.946;6.954;2022-09-01T10:37:51;25.30;22.80
5130;DHT22;2583;50.946;6.954;2022-09-01T10:43:24;25.60;22.60
5130;DHT22;2583;50.946;6.954;2022-09-01T10:45:53;25.70;22.30
5130;DHT22;2583;50.946;6.954;2022-09-01T10:48:33;25.70;22.10
5130;DHT22;2583;50.946;6.954;2022-09-01T11:02:14;25.40;22.20
5130;DHT22;2583;50.946;6.954;2022-09-01T11:10:31;25.60;22.00
5130;DHT22;2583;50.946;6.954;2022-09-01T11:16:26;26.00;21.70
5130;DHT22;2583;50.946;6.954;2022-09-01T11:27:11;26.40;21.10
5130;DHT22;2583;50.946;6.954;2022-09-01T11:29:56;26.50;21.10
5130;DHT22;2583;50.946;6.954;2022-09-01T11:32:33;26.20;20.90
5130;DHT22;2583;50.946;6.954;2022-09-01T11:35:04;26.00;20.90
5130;DHT22;2583;50.946;6.954;2022-09-01T11:37:32;26.00;21.00
5130;DHT22;2583;50.946;6.954;2022-09-01T11:40:02;25.90;21.00
5130;DHT22;2583;50.946;6.954;2022-09-01T11:42:41;25.80;21.20
5130;DHT22;2583;50.946;6.954;2022-09-01T11:47:49;25.70;21.60
5130;DHT22;2583;50.946;6.954;2022-09-01T11:50:25;25.70;21.20
5130;DHT22;2583;50.946;6.954;2022-09-01T11:52:58;25.70;21.20
5130;DHT22;2583;50.946;6.954;2022-09-01T11:57:57;25.40;21.70
5130;DHT22;2583;50.946;6.954;2022-09-01T12:00:29;25.50;21.40
5130;DHT22;2583;50.946;6.954;2022-09-01T12:02:57;25.60;21.20
5130;DHT22;2583;50.946;6.954;2022-09-01T12:07:52;25.70;21.30
5130;DHT22;2583;50.946;6.954;2022-09-01T12:13:01;25.20;21.70
5130;DHT22;2583;50.946;6.954;2022-09-01T12:15:28;25.20;21.80
5130;DHT22;2583;50.946;6.954;2022-09-01T12:20:42;25.30;22.50
5130;DHT22;2583;50.946;6.954;2022-09-01T12:23:41;25.40;22.60
5130;DHT22;2583;50.946;6.954;2022-09-01T12:26:18;25.50;22.10
5130;DHT22;2583;50.946;6.954;2022-09-01T12:28:46;25.50;22.40
5130;DHT22;2583;50.946;6.954;2022-09-01T12:31:19;26.20;22.70
5130;DHT22;2583;50.946;6.954;2022-09-01T12:33:47;26.80;21.80
5130;DHT22;2583;50.946;6.954;2022-09-01T12:38:55;27.30;21.00
5130;DHT22;2583;50.946;6.954;2022-09-01T12:41:34;27.50;20.50
5130;DHT22;2583;50.946;6.954;2022-09-01T12:44:27;27.50;20.10
5130;DHT22;2583;50.946;6.954;2022-09-01T12:47:09;27.40;20.70
5130;DHT22;2583;50.946;6.954;2022-09-01T12:49:42;27.60;20.90
5130;DHT22;2583;50.946;6.954;2022-09-01T12:54:48;27.20;20.80
5130;DHT22;2583;50.946;6.954;2022-09-01T13:02:41;26.40;21.40
5130;DHT22;2583;50.946;6.954;2022-09-01T13:05:37;26.30;21.70
5130;DHT22;2583;50.946;6.954;2022-09-01T13:08:11;26.20;22.00
5130;DHT22;2583;50.946;6.954;2022-09-01T13:10:43;26.10;22.10
5130;DHT22;2583;50.946;6.954;2022-09-01T13:13:11;26.10;22.30
5130;DHT22;2583;50.946;6.954;2022-09-01T13:15:43;26.90;22.70
5130;DHT22;2583;50.946;6.954;2022-09-01T13:18:15;27.10;21.00
5130;DHT22;2583;50.946;6.954;2022-09-01T13:20:42;27.40;20.40
5130;DHT22;2583;50.946;6.954;2022-09-01T13:23:09;28.10;20.50
5130;DHT22;2583;50.946;6.954;2022-09-01T13:25:38;28.50;19.30
5130;DHT22;2583;50.946;6.954;2022-09-01T13:28:06;29.00;18.80
5130;DHT22;2583;50.946;6.954;2022-09-01T13:30:33;29.30;17.50
5130;DHT22;2583;50.946;6.954;2022-09-01T13:33:00;29.60;17.40
5130;DHT22;2583;50.946;6.954;2022-09-01T13:35:48;29.60;17.00
5130;DHT22;2583;50.946;6.954;2022-09-01T13:38:16;29.40;17.60
5130;DHT22;2583;50.946;6.954;2022-09-01T13:40:44;29.00;17.80
5130;DHT22;2583;50.946;6.954;2022-09-01T13:43:17;28.50;18.30
5130;DHT22;2583;50.946;6.954;2022-09-01T13:45:45;28.10;19.10
5130;DHT22;2583;50.946;6.954;2022-09-01T13:48:13;27.70;19.50
5130;DHT22;2583;50.946;6.954;2022-09-01T13:50:42;27.40;19.90
5130;DHT22;2583;50.946;6.954;2022-09-01T13:53:29;27.20;20.10
5130;DHT22;2583;50.946;6.954;2022-09-01T13:55:56;26.90;20.10
5130;DHT22;2583;50.946;6.954;2022-09-01T13:58:28;26.70;20.50
5130;DHT22;2583;50.946;6.954;2022-09-01T14:00:55;26.60;20.10
5130;DHT22;2583;50.946;6.954;2022-09-01T14:03:25;26.40;20.50
5130;DHT22;2583;50.946;6.954;2022-09-01T14:05:52;26.30;21.00
5130;DHT22;2583;50.946;6.954;2022-09-01T14:08:20;26.40;21.20
5130;DHT22;2583;50.946;6.954;2022-09-01T14:10:50;26.70;20.70
5130;DHT22;2583;50.946;6.954;2022-09-01T14:13:20;27.70;20.40
5130;DHT22;2583;50.946;6.954;2022-09-01T14:15:47;28.30;19.00
5130;DHT22;2583;50.946;6.954;2022-09-01T14:18:16;28.30;18.80
5130;DHT22;2583;50.946;6.954;2022-09-01T14:20:46;28.00;19.10
5130;DHT22;2583;50.946;6.954;2022-09-01T14:23:14;27.70;19.40
5130;DHT22;2583;50.946;6.954;2022-09-01T14:25:49;27.50;19.90
5130;DHT22;2583;50.946;6.954;2022-09-01T14:28:17;27.30;20.20
5130;DHT22;2583;50.946;6.954;2022-09-01T14:30:47;27.10;20.40
5130;DHT22;2583;50.946;6.954;2022-09-01T14:33:15;27.00;20.50
5130;DHT22;2583;50.946;6.954;2022-09-01T14:35:46;27.20;20.90
5130;DHT22;2583;50.946;6.954;2022-09-01T14:38:13;27.20;20.40
5130;DHT22;2583;50.946;6.954;2022-09-01T14:40:42;27.30;20.10
5130;DHT22;2583;50.946;6.954;2022-09-01T14:43:10;27.40;20.30
5130;DHT22;2583;50.946;6.954;2022-09-01T14:45:41;27.50;19.60
5130;DHT22;2583;50.946;6.954;2022-09-01T14:48:12;27.50;19.10
5130;DHT22;2583;50.946;6.954;2022-09-01T14:50:48;27.50;18.90
5130;DHT22;2583;50.946;6.954;2022-09-01T14:53:16;27.60;19.50
5130;DHT22;2583;50.946;6.954;2022-09-01T14:55:43;27.50;18.80
5130;DHT22;2583;50.946;6.954;2022-09-01T14:58:11;27.50;18.20
5130;DHT22;2583;50.946;6.954;2022-09-01T15:00:38;27.40;17.70
5130;DHT22;2583;50.946;6.954;2022-09-01T15:03:08;27.30;17.70
5130;DHT22;2583;50.946;6.954;2022-09-01T15:05:36;27.20;18.10
5130;DHT22;2583;50.946;6.954;2022-09-01T15:08:07;27.30;18.30
5130;DHT22;2583;50.946;6.954;2022-09-01T15:10:35;27.40;18.50
5130;DHT22;2583;50.946;6.954;2022-09-01T15:13:02;27.40;17.10
5130;DHT22;2583;50.946;6.954;2022-09-01T15:15:29;27.50;17.50
5130;DHT22;2583;50.946;6.954;2022-09-01T15:17:58;27.60;17.00
5130;DHT22;2583;50.946;6.954;2022-09-01T15:20:26;27.50;17.30
5130;DHT22;2583;50.946;6.954;2022-09-01T15:23:14;27.30;18.00
5130;DHT22;2583;50.946;6.954;2022-09-01T15:25:41;27.20;18.50
5130;DHT22;2583;50.946;6.954;2022-09-01T15:28:08;27.20;18.60
5130;DHT22;2583;50.946;6.954;2022-09-01T15:30:37;27.00;18.60
5130;DHT22;2583;50.946;6.954;2022-09-01T15:33:06;27.00;18.80
5130;DHT22;2583;50.946;6.954;2022-09-01T15:35:41;26.90;18.80
5130;DHT22;2583;50.946;6.954;2022-09-01T15:38:08;26.80;18.80
5130;DHT22;2583;50.946;6.954;2022-09-01T15:40:41;26.80;18.20
5130;DHT22;2583;50.946;6.954;2022-09-01T15:43:09;26.70;18.00
5130;DHT22;2583;50.946;6.954;2022-09-01T15:45:37;26.60;17.40
5130;DHT22;2583;50.946;6.954;2022-09-01T15:48:05;26.60;17.80
5130;DHT22;2583;50.946;6.954;2022-09-01T15:50:32;26.60;17.10
5130;DHT22;2583;50.946;6.954;2022-09-01T15:53:01;26.60;16.60
5130;DHT22;2583;50.946;6.954;2022-09-01T15:55:37;26.50;16.50
5130;DHT22;2583;50.946;6.954;2022-09-01T15:58:07;26.40;16.30
5130;DHT22;2583;50.946;6.954;2022-09-01T16:00:35;26.30;16.30
5130;DHT22;2583;50.946;6.954;2022-09-01T16:03:06;26.20;16.60
5130;DHT22;2583;50.946;6.954;2022-09-01T16:05:35;26.20;16.80
5130;DHT22;2583;50.946;6.954;2022-09-01T16:08:03;26.10;17.00
5130;DHT22;2583;50.946;6.954;2022-09-01T16:10:30;26.00;16.00
5130;DHT22;2583;50.946;6.954;2022-09-01T16:13:02;25.90;16.70
5130;DHT22;2583;50.946;6.954;2022-09-01T16:15:30;25.90;16.30
5130;DHT22;2583;50.946;6.954;2022-09-01T16:21:05;25.90;16.80
5130;DHT22;2583;50.946;6.954;2022-09-01T16:23:47;25.80;16.30
5130;DHT22;2583;50.946;6.954;2022-09-01T16:26:18;25.80;16.60
5130;DHT22;2583;50.946;6.954;2022-09-01T16:28:55;25.70;16.50
5130;DHT22;2583;50.946;6.954;2022-09-01T16:31:26;25.60;16.60
5130;DHT22;2583;50.946;6.954;2022-09-01T16:33:55;25.60;16.80
5130;DHT22;2583;50.946;6.954;2022-09-01T16:36:47;25.50;17.00
5130;DHT22;2583;50.946;6.954;2022-09-01T16:45:06;25.30;17.40
5130;DHT22;2583;50.946;6.954;2022-09-01T16:53:32;25.00;17.70
5130;DHT22;2583;50.946;6.954;2022-09-01T16:56:07;25.00;18.00
5130;DHT22;2583;50.946;6.954;2022-09-01T17:02:13;24.90;17.70
5130;DHT22;2583;50.946;6.954;2022-09-01T17:04:53;24.90;17.70
5130;DHT22;2583;50.946;6.954;2022-09-01T17:07:48;24.90;16.80
5130;DHT22;2583;50.946;6.954;2022-09-01T17:13:15;24.90;17.30
5130;DHT22;2583;50.946;6.954;2022-09-01T17:15:44;24.90;17.40
5130;DHT22;2583;50.946;6.954;2022-09-01T17:18:39;24.80;17.50
5130;DHT22;2583;50.946;6.954;2022-09-01T17:21:23;24.80;17.40
5130;DHT22;2583;50.946;6.954;2022-09-01T17:24:01;24.80;17.40
5130;DHT22;2583;50.946;6.954;2022-09-01T17:26:30;24.80;17.30
5130;DHT22;2583;50.946;6.954;2022-09-01T17:29:03;24.80;17.20
5130;DHT22;2583;50.946;6.954;2022-09-01T17:37:48;24.70;17.50
5130;DHT22;2583;50.946;6.954;2022-09-01T17:43:02;24.60;18.00
5130;DHT22;2583;50.946;6.954;2022-09-01T17:45:43;24.50;17.90
5130;DHT22;2583;50.946;6.954;2022-09-01T17:48:17;24.50;17.80
5130;DHT22;2583;50.946;6.954;2022-09-01T17:51:05;24.40;18.00
5130;DHT22;2583;50.946;6.954;2022-09-01T17:54:02;24.40;17.90
5130;DHT22;2583;50.946;6.954;2022-09-01T17:56:43;24.30;18.30
5130;DHT22;2583;50.946;6.954;2022-09-01T17:59:33;24.20;17.90
5130;DHT22;2583;50.946;6.954;2022-09-01T18:02:28;24.20;18.10
5130;DHT22;2583;50.946;6.954;2022-09-01T18:05:07;24.20;18.20
5130;DHT22;2583;50.946;6.954;2022-09-01T18:10:13;24.00;18.90
5130;DHT22;2583;50.946;6.954;2022-09-01T18:12:42;23.90;18.90
5130;DHT22;2583;50.946;6.954;2022-09-01T18:15:19;23.90;19.20
5130;DHT22;2583;50.946;6.954;2022-09-01T18:17:51;23.80;18.70
5130;DHT22;2583;50.946;6.954;2022-09-01T18:20:32;23.80;19.10
5130;DHT22;2583;50.946;6.954;2022-09-01T18:25:41;23.70;19.10
5130;DHT22;2583;50.946;6.954;2022-09-01T18:28:11;23.60;19.60
5130;DHT22;2583;50.946;6.954;2022-09-01T18:31:16;23.50;19.50
5130;DHT22;2583;50.946;6.954;2022-09-01T18:39:58;23.30;19.60